sensor_id;sensor_type;location;lat;lon;timestamp;temperature;humidity
61979;DHT22;47938;48.176;16.414;2023-02-23T00:00:19;6.70;99.90
61979;DHT22;47938;48.176;16.414;2023-02-23T00:02:48;6.70;99.90
61979;DHT22;47938;48.176;16.414;2023-02-23T00:05:13;6.60;99.90
61979;DHT22;47938;48.176;16.414;2023-02-23T00:07:41;6.60;99.90
61979;DHT22;47938;48.176;16.414;2023-02-23T00:10:07;6.60;99.90
61979;DHT22;47938;48.176;16.414;2023-02-23T00:12:33;6.60;99.90
61979;DHT22;47938;48.176;16.414;2023-02-23T00:14:59;6.60;99.90
61979;DHT22;47938;48.176;16.414;2023-02-23T00:17:24;6.60;99.90
61979;DHT22;47938;48.176;16.414;2023-02-23T00:19:50;6.60;99.90
61979;DHT22;47938;48.176;16.414;2023-02-23T00:22:16;6.60;99.90
61979;DHT22;47938;48.176;16.414;2023-02-23T00:24:41;6.60;99.90
61979;DHT22;47938;48.176;16.414;2023-02-23T00:27:07;6.50;99.90
61979;DHT22;47938;48.176;16.414;2023-02-23T00:29:33;6.50;99.90
61979;DHT22;47938;48.176;16.414;2023-02-23T00:31:58;6.40;99.90
61979;DHT22;47938;48.176;16.414;2023-02-23T00:34:24;6.50;99.90
61979;DHT22;47938;48.176;16.414;2023-02-23T00:36:51;6.40;99.90
61979;DHT22;47938;48.176;16.414;2023-02-23T00:39:18;6.40;99.90
61979;DHT22;47938;48.176;16.414;2023-02-23T00:41:44;6.40;99.90
61979;DHT22;47938;48.176;16.414;2023-02-23T00:44:10;6.40;99.90
61979;DHT22;47938;48.176;16.414;2023-02-23T00:46:35;6.40;99.90
61979;DHT22;47938;48.176;16.414;2023-02-23T00:49:01;6.40;99.90
61979;DHT22;47938;48.176;16.414;2023-02-23T00:51:27;6.30;99.90
61979;DHT22;47938;48.176;16.414;2023-02-23T00:53:53;6.30;99.90
61979;DHT22;47938;48.176;16.414;2023-02-23T00:56:19;6.30;99.90
61979;DHT22;47938;48.176;16.414;2023-02-23T00:58:44;6.30;99.90
61979;DHT22;47938;48.176;16.414;2023-02-23T01:01:11;6.30;99.90
61979;DHT22;47938;48.176;16.414;2023-02-23T01:03:39;6.30;99.90
61979;DHT22;47938;48.176;16.414;2023-02-23T01:06:06;6.30;99.90
61979;DHT22;47938;48.176;16.414;2023-02-23T01:08:34;6.30;99.90
61979;DHT22;47938;48.176;16.414;2023-02-23T01:11:22;6.30;99.90
61979;DHT22;47938;48.176;16.414;2023-02-23T01:13:51;6.30;99.90
61979;DHT22;47938;48.176;16.414;2023-02-23T01:16:20;6.30;99.90
61979;DHT22;47938;48.176;16.414;2023-02-23T01:18:46;6.20;99.90
61979;DHT22;47938;48.176;16.414;2023-02-23T01:21:16;6.20;99.90
61979;DHT22;47938;48.176;16.414;2023-02-23T01:23:41;6.20;99.90
61979;DHT22;47938;48.176;16.414;2023-02-23T01:29:14;6.10;99.90
61979;DHT22;47938;48.176;16.414;2023-02-23T01:31:44;6.10;99.90
61979;DHT22;47938;48.176;16.414;2023-02-23T01:34:12;6.00;99.90
61979;DHT22;47938;48.176;16.414;2023-02-23T01:36:39;6.10;99.90
61979;DHT22;47938;48.176;16.414;2023-02-23T01:39:09;6.10;99.90
61979;DHT22;47938;48.176;16.414;2023-02-23T01:41:35;6.10;99.90
61979;DHT22;47938;48.176;16.414;2023-02-23T01:44:04;6.10;99.90
61979;DHT22;47938;48.176;16.414;2023-02-23T01:46:39;6.10;99.90
61979;DHT22;47938;48.176;16.414;2023-02-23T01:49:07;6.00;99.90
61979;DHT22;47938;48.176;16.414;2023-02-23T01:51:41;6.00;99.90
61979;DHT22;47938;48.176;16.414;2023-02-23T01:54:12;6.00;99.90
61979;DHT22;47938;48.176;16.414;2023-02-23T01:56:41;6.00;99.90
61979;DHT22;47938;48.176;16.414;2023-02-23T01:59:10;5.90;99.90
61979;DHT22;47938;48.176;16.414;2023-02-23T02:01:38;5.90;99.90
61979;DHT22;47938;48.176;16.414;2023-02-23T02:04:04;5.90;99.90
61979;DHT22;47938;48.176;16.414;2023-02-23T02:06:30;5.90;99.90
61979;DHT22;47938;48.176;16.414;2023-02-23T02:09:03;5.90;99.90
61979;DHT22;47938;48.176;16.414;2023-02-23T02:11:29;5.90;99.90
61979;DHT22;47938;48.176;16.414;2023-02-23T02:21:56;5.90;99.90
61979;DHT22;47938;48.176;16.414;2023-02-23T02:27:23;5.80;99.90
61979;DHT22;47938;48.176;16.414;2023-02-23T02:30:02;5.80;99.90
61979;DHT22;47938;48.176;16.414;2023-02-23T02:33:22;5.80;99.90
61979;DHT22;47938;48.176;16.414;2023-02-23T02:35:37;5.80;99.90
61979;DHT22;47938;48.176;16.414;2023-02-23T02:41:01;5.80;99.90
61979;DHT22;47938;48.176;16.414;2023-02-23T02:43:39;5.70;99.90
61979;DHT22;47938;48.176;16.414;2023-02-23T02:46:19;5.70;99.90
61979;DHT22;47938;48.176;16.414;2023-02-23T02:51:43;5.70;99.90
61979;DHT22;47938;48.176;16.414;2023-02-23T02:56:42;5.70;99.90
61979;DHT22;47938;48.176;16.414;2023-02-23T02:59:15;5.70;99.90
61979;DHT22;47938;48.176;16.414;2023-02-23T03:01:41;5.70;99.90
61979;DHT22;47938;48.176;16.414;2023-02-23T03:04:24;5.70;99.90
61979;DHT22;47938;48.176;16.414;2023-02-23T03:06:57;5.70;99.90
61979;DHT22;47938;48.176;16.414;2023-02-23T03:12:33;5.70;99.90
61979;DHT22;47938;48.176;16.414;2023-02-23T03:17:45;5.70;99.90
61979;DHT22;47938;48.176;16.414;2023-02-23T03:22:56;5.70;99.90
61979;DHT22;47938;48.176;16.414;2023-02-23T03:25:32;5.60;99.90
61979;DHT22;47938;48.176;16.414;2023-02-23T03:28:28;5.70;99.90
61979;DHT22;47938;48.176;16.414;2023-02-23T03:33:55;5.70;99.90
61979;DHT22;47938;48.176;16.414;2023-02-23T03:36:26;5.70;99.90
61979;DHT22;47938;48.176;16.414;2023-02-23T03:41:39;5.70;99.90
61979;DHT22;47938;48.176;16.414;2023-02-23T03:44:10;5.70;99.90
61979;DHT22;47938;48.176;16.414;2023-02-23T03:46:38;5.80;99.90
61979;DHT22;47938;48.176;16.414;2023-02-23T03:49:08;5.80;99.90
61979;DHT22;47938;48.176;16.414;2023-02-23T03:51:36;5.90;99.90
61979;DHT22;47938;48.176;16.414;2023-02-23T03:54:26;5.80;99.90
61979;DHT22;47938;48.176;16.414;2023-02-23T03:56:58;5.90;99.90
61979;DHT22;47938;48.176;16.414;2023-02-23T03:59:29;5.90;99.90
61979;DHT22;47938;48.176;16.414;2023-02-23T04:01:57;5.90;99.90
61979;DHT22;47938;48.176;16.414;2023-02-23T04:04:24;5.90;99.90
61979;DHT22;47938;48.176;16.414;2023-02-23T04:06:55;5.90;99.90
61979;DHT22;47938;48.176;16.414;2023-02-23T04:09:21;5.90;99.90
61979;DHT22;47938;48.176;16.414;2023-02-23T04:11:52;5.90;99.90
61979;DHT22;47938;48.176;16.414;2023-02-23T04:14:26;5.90;99.90
61979;DHT22;47938;48.176;16.414;2023-02-23T04:16:54;5.90;99.90
61979;DHT22;47938;48.176;16.414;2023-02-23T04:19:20;5.90;99.90
61979;DHT22;47938;48.176;16.414;2023-02-23T04:21:46;6.00;99.90
61979;DHT22;47938;48.176;16.414;2023-02-23T04:24:12;6.00;99.90
61979;DHT22;47938;48.176;16.414;2023-02-23T04:26:37;6.00;99.90
61979;DHT22;47938;48.176;16.414;2023-02-23T04:29:03;5.90;99.90
61979;DHT22;47938;48.176;16.414;2023-02-23T04:31:29;6.00;99.90
61979;DHT22;47938;48.176;16.414;2023-02-23T04:33:54;6.00;99.90
61979;DHT22;47938;48.176;16.414;2023-02-23T04:36:20;6.00;99.90
61979;DHT22;47938;48.176;16.414;2023-02-23T04:38:46;6.00;99.90
61979;DHT22;47938;48.176;16.414;2023-02-23T04:41:11;6.00;99.90
61979;DHT22;47938;48.176;16.414;2023-02-23T04:43:37;6.00;99.90
61979;DHT22;47938;48.176;16.414;2023-02-23T04:46:02;6.00;99.90
61979;DHT22;47938;48.176;16.414;2023-02-23T04:48:28;6.00;99.90
61979;DHT22;47938;48.176;16.414;2023-02-23T04:50:54;6.00;99.90
61979;DHT22;47938;48.176;16.414;2023-02-23T04:53:19;6.00;99.90
61979;DHT22;47938;48.176;16.414;2023-02-23T04:55:45;5.90;99.90
61979;DHT22;47938;48.176;16.414;2023-02-23T04:58:12;5.90;99.90
61979;DHT22;47938;48.176;16.414;2023-02-23T05:00:38;5.90;99.90
61979;DHT22;47938;48.176;16.414;2023-02-23T05:03:04;5.90;99.90
61979;DHT22;47938;48.176;16.414;2023-02-23T05:05:30;5.90;99.90
61979;DHT22;47938;48.176;16.414;2023-02-23T05:07:56;5.90;99.90
61979;DHT22;47938;48.176;16.414;2023-02-23T05:10:22;6.00;99.90
61979;DHT22;47938;48.176;16.414;2023-02-23T05:12:48;6.00;99.90
61979;DHT22;47938;48.176;16.414;2023-02-23T05:15:13;5.90;99.90
61979;DHT22;47938;48.176;16.414;2023-02-23T05:17:39;5.90;99.90
61979;DHT22;47938;48.176;16.414;2023-02-23T05:20:06;5.90;99.90
61979;DHT22;47938;48.176;16.414;2023-02-23T05:22:32;5.90;99.90
61979;DHT22;47938;48.176;16.414;2023-02-23T05:24:57;5.90;99.90
61979;DHT22;47938;48.176;16.414;2023-02-23T05:27:23;5.90;99.90
61979;DHT22;47938;48.176;16.414;2023-02-23T05:29:49;5.90;99.90
61979;DHT22;47938;48.176;16.414;2023-02-23T05:32:14;5.90;99.90
61979;DHT22;47938;48.176;16.414;2023-02-23T05:34:40;5.90;99.90
61979;DHT22;47938;48.176;16.414;2023-02-23T05:37:05;5.90;99.90
61979;DHT22;47938;48.176;16.414;2023-02-23T05:39:31;5.90;99.90
61979;DHT22;47938;48.176;16.414;2023-02-23T05:41:57;5.90;99.90
61979;DHT22;47938;48.176;16.414;2023-02-23T05:44:23;5.90;99.90
61979;DHT22;47938;48.176;16.414;2023-02-23T05:46:48;5.90;99.90
61979;DHT22;47938;48.176;16.414;2023-02-23T05:49:14;5.90;99.90
61979;DHT22;47938;48.176;16.414;2023-02-23T05:51:40;5.90;99.90
61979;DHT22;47938;48.176;16.414;2023-02-23T05:54:05;5.80;99.90
61979;DHT22;47938;48.176;16.414;2023-02-23T05:56:31;5.90;99.90
61979;DHT22;47938;48.176;16.414;2023-02-23T05:58:57;5.90;99.90
61979;DHT22;47938;48.176;16.414;2023-02-23T06:01:25;5.90;99.90
61979;DHT22;47938;48.176;16.414;2023-02-23T06:03:51;5.90;99.90
61979;DHT22;47938;48.176;16.414;2023-02-23T06:06:17;5.90;99.90
61979;DHT22;47938;48.176;16.414;2023-02-23T06:08:43;5.90;99.90
61979;DHT22;47938;48.176;16.414;2023-02-23T06:11:09;6.00;99.90
61979;DHT22;47938;48.176;16.414;2023-02-23T06:13:35;6.00;99.90
61979;DHT22;47938;48.176;16.414;2023-02-23T06:16:01;6.00;99.90
61979;DHT22;47938;48.176;16.414;2023-02-23T06:18:27;6.00;99.90
61979;DHT22;47938;48.176;16.414;2023-02-23T06:20:53;6.10;99.90
61979;DHT22;47938;48.176;16.414;2023-02-23T06:23:19;6.10;99.90
61979;DHT22;47938;48.176;16.414;2023-02-23T06:25:45;6.20;99.90
61979;DHT22;47938;48.176;16.414;2023-02-23T06:28:11;6.30;99.90
61979;DHT22;47938;48.176;16.414;2023-02-23T06:30:38;6.30;99.90
61979;DHT22;47938;48.176;16.414;2023-02-23T06:33:04;6.40;99.90
61979;DHT22;47938;48.176;16.414;2023-02-23T06:35:31;6.40;99.90
61979;DHT22;47938;48.176;16.414;2023-02-23T06:37:57;6.50;99.90
61979;DHT22;47938;48.176;16.414;2023-02-23T06:40:23;6.50;99.90
61979;DHT22;47938;48.176;16.414;2023-02-23T06:42:50;6.50;99.90
61979;DHT22;47938;48.176;16.414;2023-02-23T06:45:15;6.60;99.90
61979;DHT22;47938;48.176;16.414;2023-02-23T06:47:41;6.60;99.90
61979;DHT22;47938;48.176;16.414;2023-02-23T06:50:08;6.70;99.90
61979;DHT22;47938;48.176;16.414;2023-02-23T06:52:34;6.70;99.90
61979;DHT22;47938;48.176;16.414;2023-02-23T06:54:59;6.70;99.90
61979;DHT22;47938;48.176;16.414;2023-02-23T06:57:25;6.80;99.90
61979;DHT22;47938;48.176;16.414;2023-02-23T06:59:51;6.80;99.90
61979;DHT22;47938;48.176;16.414;2023-02-23T07:02:17;6.90;99.90
61979;DHT22;47938;48.176;16.414;2023-02-23T07:04:42;7.00;99.90
61979;DHT22;47938;48.176;16.414;2023-02-23T07:07:08;7.10;99.90
61979;DHT22;47938;48.176;16.414;2023-02-23T07:09:34;7.10;99.90
61979;DHT22;47938;48.176;16.414;2023-02-23T07:12:00;7.10;99.90
61979;DHT22;47938;48.176;16.414;2023-02-23T07:14:26;7.20;99.90
61979;DHT22;47938;48.176;16.414;2023-02-23T07:16:52;7.30;99.90
61979;DHT22;47938;48.176;16.414;2023-02-23T07:19:18;7.40;99.90
61979;DHT22;47938;48.176;16.414;2023-02-23T07:21:44;7.40;99.90
61979;DHT22;47938;48.176;16.414;2023-02-23T07:24:09;7.50;99.90
61979;DHT22;47938;48.176;16.414;2023-02-23T07:26:35;7.60;99.90
61979;DHT22;47938;48.176;16.414;2023-02-23T07:29:01;7.70;99.90
61979;DHT22;47938;48.176;16.414;2023-02-23T07:31:27;7.80;99.90
61979;DHT22;47938;48.176;16.414;2023-02-23T07:33:53;7.90;99.90
61979;DHT22;47938;48.176;16.414;2023-02-23T07:36:23;8.00;99.90
61979;DHT22;47938;48.176;16.414;2023-02-23T07:38:49;8.00;99.90
61979;DHT22;47938;48.176;16.414;2023-02-23T07:41:14;8.10;99.90
61979;DHT22;47938;48.176;16.414;2023-02-23T07:43:40;8.20;99.90
61979;DHT22;47938;48.176;16.414;2023-02-23T07:46:06;8.20;99.90
61979;DHT22;47938;48.176;16.414;2023-02-23T07:48:32;8.30;99.90
61979;DHT22;47938;48.176;16.414;2023-02-23T07:50:57;8.40;99.10
61979;DHT22;47938;48.176;16.414;2023-02-23T07:53:23;8.60;99.10
61979;DHT22;47938;48.176;16.414;2023-02-23T07:55:56;8.80;97.40
61979;DHT22;47938;48.176;16.414;2023-02-23T07:58:22;9.00;95.30
61979;DHT22;47938;48.176;16.414;2023-02-23T08:00:48;9.10;94.60
61979;DHT22;47938;48.176;16.414;2023-02-23T08:03:13;9.30;93.50
61979;DHT22;47938;48.176;16.414;2023-02-23T08:05:39;9.30;92.80
61979;DHT22;47938;48.176;16.414;2023-02-23T08:08:05;9.50;93.20
61979;DHT22;47938;48.176;16.414;2023-02-23T08:10:31;9.70;91.90
61979;DHT22;47938;48.176;16.414;2023-02-23T08:12:57;9.90;88.10
61979;DHT22;47938;48.176;16.414;2023-02-23T08:15:23;9.90;89.60
61979;DHT22;47938;48.176;16.414;2023-02-23T08:17:48;10.00;89.30
61979;DHT22;47938;48.176;16.414;2023-02-23T08:20:14;10.10;85.20
61979;DHT22;47938;48.176;16.414;2023-02-23T08:22:40;10.20;84.70
61979;DHT22;47938;48.176;16.414;2023-02-23T08:25:06;10.30;83.30
61979;DHT22;47938;48.176;16.414;2023-02-23T08:27:36;10.40;81.40
61979;DHT22;47938;48.176;16.414;2023-02-23T08:30:02;10.60;80.80
61979;DHT22;47938;48.176;16.414;2023-02-23T08:32:27;10.80;79.60
61979;DHT22;47938;48.176;16.414;2023-02-23T08:34:53;11.00;75.00
61979;DHT22;47938;48.176;16.414;2023-02-23T08:37:19;11.10;76.10
61979;DHT22;47938;48.176;16.414;2023-02-23T08:39:44;11.20;73.90
61979;DHT22;47938;48.176;16.414;2023-02-23T08:42:10;11.30;73.20
61979;DHT22;47938;48.176;16.414;2023-02-23T08:44:36;11.20;73.60
61979;DHT22;47938;48.176;16.414;2023-02-23T08:47:01;11.10;74.40
61979;DHT22;47938;48.176;16.414;2023-02-23T08:49:27;11.00;73.50
61979;DHT22;47938;48.176;16.414;2023-02-23T08:51:53;10.90;75.80
61979;DHT22;47938;48.176;16.414;2023-02-23T08:54:18;10.90;76.30
61979;DHT22;47938;48.176;16.414;2023-02-23T08:56:44;10.90;74.20
61979;DHT22;47938;48.176;16.414;2023-02-23T08:59:11;10.90;76.80
61979;DHT22;47938;48.176;16.414;2023-02-23T09:01:37;10.90;75.90
61979;DHT22;47938;48.176;16.414;2023-02-23T09:04:03;10.80;76.50
61979;DHT22;47938;48.176;16.414;2023-02-23T09:06:30;10.70;77.50
61979;DHT22;47938;48.176;16.414;2023-02-23T09:08:56;10.80;78.60
61979;DHT22;47938;48.176;16.414;2023-02-23T09:11:22;10.80;76.20
61979;DHT22;47938;48.176;16.414;2023-02-23T09:13:48;10.80;79.00
61979;DHT22;47938;48.176;16.414;2023-02-23T09:16:14;10.90;75.90
61979;DHT22;47938;48.176;16.414;2023-02-23T09:18:40;11.10;75.20
61979;DHT22;47938;48.176;16.414;2023-02-23T09:21:09;11.20;74.50
61979;DHT22;47938;48.176;16.414;2023-02-23T09:23:37;11.30;73.40
61979;DHT22;47938;48.176;16.414;2023-02-23T09:26:07;11.30;72.60
61979;DHT22;47938;48.176;16.414;2023-02-23T09:28:33;11.20;73.90
61979;DHT22;47938;48.176;16.414;2023-02-23T09:31:08;11.30;73.30
61979;DHT22;47938;48.176;16.414;2023-02-23T09:33:34;11.40;72.90
61979;DHT22;47938;48.176;16.414;2023-02-23T09:36:06;11.30;73.10
61979;DHT22;47938;48.176;16.414;2023-02-23T09:38:32;11.40;72.30
61979;DHT22;47938;48.176;16.414;2023-02-23T09:40:58;11.30;71.50
61979;DHT22;47938;48.176;16.414;2023-02-23T09:48:58;11.60;72.20
61979;DHT22;47938;48.176;16.414;2023-02-23T09:51:25;11.70;72.20
61979;DHT22;47938;48.176;16.414;2023-02-23T09:53:56;11.80;71.40
61979;DHT22;47938;48.176;16.414;2023-02-23T09:56:44;12.00;70.20
61979;DHT22;47938;48.176;16.414;2023-02-23T09:59:18;12.10;70.20
61979;DHT22;47938;48.176;16.414;2023-02-23T10:07:15;12.00;69.90
61979;DHT22;47938;48.176;16.414;2023-02-23T10:12:45;12.20;69.90
61979;DHT22;47938;48.176;16.414;2023-02-23T10:23:03;12.40;69.00
61979;DHT22;47938;48.176;16.414;2023-02-23T10:25:34;12.60;69.50
61979;DHT22;47938;48.176;16.414;2023-02-23T10:28:01;12.70;67.40
61979;DHT22;47938;48.176;16.414;2023-02-23T10:30:30;12.70;68.00
61979;DHT22;47938;48.176;16.414;2023-02-23T10:35:27;13.10;66.30
61979;DHT22;47938;48.176;16.414;2023-02-23T10:37:54;13.10;65.70
61979;DHT22;47938;48.176;16.414;2023-02-23T10:40:23;13.20;65.20
61979;DHT22;47938;48.176;16.414;2023-02-23T10:42:50;13.10;64.80
61979;DHT22;47938;48.176;16.414;2023-02-23T10:45:21;13.20;65.70
61979;DHT22;47938;48.176;16.414;2023-02-23T10:48:07;13.40;64.80
61979;DHT22;47938;48.176;16.414;2023-02-23T10:50:37;13.50;64.00
61979;DHT22;47938;48.176;16.414;2023-02-23T10:53:16;13.70;62.80
61979;DHT22;47938;48.176;16.414;2023-02-23T10:55:43;13.70;61.60
61979;DHT22;47938;48.176;16.414;2023-02-23T10:58:15;13.60;62.00
61979;DHT22;47938;48.176;16.414;2023-02-23T11:01:02;13.60;61.60
61979;DHT22;47938;48.176;16.414;2023-02-23T11:03:37;13.70;62.10
61979;DHT22;47938;48.176;16.414;2023-02-23T11:06:03;13.80;62.20
61979;DHT22;47938;48.176;16.414;2023-02-23T11:08:36;13.90;61.30
61979;DHT22;47938;48.176;16.414;2023-02-23T11:11:05;13.60;61.70
61979;DHT22;47938;48.176;16.414;2023-02-23T11:13:42;13.60;61.60
61979;DHT22;47938;48.176;16.414;2023-02-23T11:16:27;13.30;63.50
61979;DHT22;47938;48.176;16.414;2023-02-23T11:18:55;13.20;63.80
61979;DHT22;47938;48.176;16.414;2023-02-23T11:21:33;13.10;63.80
61979;DHT22;47938;48.176;16.414;2023-02-23T11:24:22;13.10;64.50
61979;DHT22;47938;48.176;16.414;2023-02-23T11:26:50;13.20;65.40
61979;DHT22;47938;48.176;16.414;2023-02-23T11:29:29;13.00;66.00
61979;DHT22;47938;48.176;16.414;2023-02-23T11:31:56;13.10;65.40
61979;DHT22;47938;48.176;16.414;2023-02-23T11:34:34;13.30;64.90
61979;DHT22;47938;48.176;16.414;2023-02-23T11:40:07;13.70;63.60
61979;DHT22;47938;48.176;16.414;2023-02-23T11:42:54;13.90;62.50
61979;DHT22;47938;48.176;16.414;2023-02-23T11:45:22;14.10;61.40
61979;DHT22;47938;48.176;16.414;2023-02-23T11:47:54;14.20;61.00
61979;DHT22;47938;48.176;16.414;2023-02-23T11:52:55;14.00;61.80
61979;DHT22;47938;48.176;16.414;2023-02-23T11:55:21;13.70;62.50
61979;DHT22;47938;48.176;16.414;2023-02-23T11:57:47;13.80;63.70
61979;DHT22;47938;48.176;16.414;2023-02-23T12:00:21;14.10;61.00
61979;DHT22;47938;48.176;16.414;2023-02-23T12:02:55;14.40;60.10
61979;DHT22;47938;48.176;16.414;2023-02-23T12:05:28;14.50;58.70
61979;DHT22;47938;48.176;16.414;2023-02-23T12:08:17;14.50;58.70
61979;DHT22;47938;48.176;16.414;2023-02-23T12:10:53;14.70;58.10
61979;DHT22;47938;48.176;16.414;2023-02-23T12:13:48;14.50;58.70
61979;DHT22;47938;48.176;16.414;2023-02-23T12:16:28;14.30;59.90
61979;DHT22;47938;48.176;16.414;2023-02-23T12:18:58;14.60;59.10
61979;DHT22;47938;48.176;16.414;2023-02-23T12:21:44;14.60;58.90
61979;DHT22;47938;48.176;16.414;2023-02-23T12:24:57;14.60;59.40
61979;DHT22;47938;48.176;16.414;2023-02-23T12:27:15;14.50;59.30
61979;DHT22;47938;48.176;16.414;2023-02-23T12:30:11;14.60;58.70
61979;DHT22;47938;48.176;16.414;2023-02-23T12:40:27;14.60;59.50
61979;DHT22;47938;48.176;16.414;2023-02-23T12:43:05;14.60;58.90
61979;DHT22;47938;48.176;16.414;2023-02-23T12:45:42;14.60;58.80
61979;DHT22;47938;48.176;16.414;2023-02-23T12:50:51;14.70;57.50
61979;DHT22;47938;48.176;16.414;2023-02-23T12:53:22;14.50;58.40
61979;DHT22;47938;48.176;16.414;2023-02-23T12:58:56;14.20;59.50
61979;DHT22;47938;48.176;16.414;2023-02-23T13:01:57;14.20;59.10
61979;DHT22;47938;48.176;16.414;2023-02-23T13:05:08;14.40;58.60
61979;DHT22;47938;48.176;16.414;2023-02-23T13:12:55;14.60;58.10
61979;DHT22;47938;48.176;16.414;2023-02-23T13:20:46;14.10;59.40
61979;DHT22;47938;48.176;16.414;2023-02-23T13:23:23;13.90;60.40
61979;DHT22;47938;48.176;16.414;2023-02-23T13:26:14;14.00;60.10
61979;DHT22;47938;48.176;16.414;2023-02-23T13:31:26;14.00;60.50
61979;DHT22;47938;48.176;16.414;2023-02-23T13:33:55;14.00;60.00
61979;DHT22;47938;48.176;16.414;2023-02-23T13:36:22;14.10;59.80
61979;DHT22;47938;48.176;16.414;2023-02-23T13:39:18;14.00;60.30
61979;DHT22;47938;48.176;16.414;2023-02-23T13:44:41;14.10;59.70
61979;DHT22;47938;48.176;16.414;2023-02-23T13:47:42;14.00;59.80
61979;DHT22;47938;48.176;16.414;2023-02-23T13:52:43;14.00;60.40
61979;DHT22;47938;48.176;16.414;2023-02-23T13:58:03;14.00;59.70
61979;DHT22;47938;48.176;16.414;2023-02-23T14:00:29;13.90;60.50
61979;DHT22;47938;48.176;16.414;2023-02-23T14:02:56;14.00;60.40
61979;DHT22;47938;48.176;16.414;2023-02-23T14:05:27;14.00;60.50
61979;DHT22;47938;48.176;16.414;2023-02-23T14:07:57;13.90;60.90
61979;DHT22;47938;48.176;16.414;2023-02-23T14:10:28;14.00;60.40
61979;DHT22;47938;48.176;16.414;2023-02-23T14:15:40;14.00;61.00
61979;DHT22;47938;48.176;16.414;2023-02-23T14:18:28;14.10;60.80
61979;DHT22;47938;48.176;16.414;2023-02-23T14:26:43;14.20;59.10
61979;DHT22;47938;48.176;16.414;2023-02-23T14:31:56;14.00;58.90
61979;DHT22;47938;48.176;16.414;2023-02-23T14:34:30;14.10;59.40
61979;DHT22;47938;48.176;16.414;2023-02-23T14:37:37;14.10;58.80
61979;DHT22;47938;48.176;16.414;2023-02-23T14:40:23;14.20;58.70
61979;DHT22;47938;48.176;16.414;2023-02-23T14:42:57;14.20;58.90
61979;DHT22;47938;48.176;16.414;2023-02-23T14:45:26;14.20;59.10
61979;DHT22;47938;48.176;16.414;2023-02-23T14:48:08;14.20;61.20
61979;DHT22;47938;48.176;16.414;2023-02-23T14:50:36;14.20;59.50
61979;DHT22;47938;48.176;16.414;2023-02-23T14:53:02;14.20;59.90
61979;DHT22;47938;48.176;16.414;2023-02-23T14:55:30;14.20;60.00
61979;DHT22;47938;48.176;16.414;2023-02-23T14:57:57;14.10;60.10
61979;DHT22;47938;48.176;16.414;2023-02-23T15:00:25;14.10;60.30
61979;DHT22;47938;48.176;16.414;2023-02-23T15:03:00;14.10;60.60
61979;DHT22;47938;48.176;16.414;2023-02-23T15:05:29;14.00;61.20
61979;DHT22;47938;48.176;16.414;2023-02-23T15:08:00;14.00;60.60
61979;DHT22;47938;48.176;16.414;2023-02-23T15:10:37;14.10;61.00
61979;DHT22;47938;48.176;16.414;2023-02-23T15:13:09;13.90;61.60
61979;DHT22;47938;48.176;16.414;2023-02-23T15:15:40;13.80;62.40
61979;DHT22;47938;48.176;16.414;2023-02-23T15:21:20;13.90;62.10
61979;DHT22;47938;48.176;16.414;2023-02-23T15:24:08;13.90;61.90
61979;DHT22;47938;48.176;16.414;2023-02-23T15:26:37;13.80;61.70
61979;DHT22;47938;48.176;16.414;2023-02-23T15:31:36;13.70;61.80
61979;DHT22;47938;48.176;16.414;2023-02-23T15:34:02;13.70;61.80
61979;DHT22;47938;48.176;16.414;2023-02-23T15:36:30;13.70;61.90
61979;DHT22;47938;48.176;16.414;2023-02-23T15:38:59;13.60;62.10
61979;DHT22;47938;48.176;16.414;2023-02-23T15:41:46;13.50;62.40
61979;DHT22;47938;48.176;16.414;2023-02-23T15:44:21;13.40;62.70
61979;DHT22;47938;48.176;16.414;2023-02-23T15:46:54;13.40;63.00
61979;DHT22;47938;48.176;16.414;2023-02-23T15:49:25;13.40;62.90
61979;DHT22;47938;48.176;16.414;2023-02-23T15:51:58;13.40;63.10
61979;DHT22;47938;48.176;16.414;2023-02-23T15:54:31;13.30;63.40
61979;DHT22;47938;48.176;16.414;2023-02-23T15:57:06;13.30;63.80
61979;DHT22;47938;48.176;16.414;2023-02-23T15:59:36;13.20;64.20
61979;DHT22;47938;48.176;16.414;2023-02-23T16:02:18;13.20;64.60
61979;DHT22;47938;48.176;16.414;2023-02-23T16:04:45;13.10;64.80
61979;DHT22;47938;48.176;16.414;2023-02-23T16:07:20;13.10;65.10
61979;DHT22;47938;48.176;16.414;2023-02-23T16:09:52;13.00;66.10
61979;DHT22;47938;48.176;16.414;2023-02-23T16:14:55;13.00;66.00
61979;DHT22;47938;48.176;16.414;2023-02-23T16:22:46;12.80;66.80
61979;DHT22;47938;48.176;16.414;2023-02-23T16:25:16;12.70;66.80
61979;DHT22;47938;48.176;16.414;2023-02-23T16:27:44;12.70;66.60
61979;DHT22;47938;48.176;16.414;2023-02-23T16:30:20;12.70;66.70
61979;DHT22;47938;48.176;16.414;2023-02-23T16:32:47;12.60;66.80
61979;DHT22;47938;48.176;16.414;2023-02-23T16:35:18;12.60;67.00
61979;DHT22;47938;48.176;16.414;2023-02-23T16:38:03;12.60;67.30
61979;DHT22;47938;48.176;16.414;2023-02-23T16:40:35;12.50;67.50
61979;DHT22;47938;48.176;16.414;2023-02-23T16:43:01;12.50;67.50
61979;DHT22;47938;48.176;16.414;2023-02-23T16:45:26;12.50;67.70
61979;DHT22;47938;48.176;16.414;2023-02-23T16:47:52;12.40;67.50
61979;DHT22;47938;48.176;16.414;2023-02-23T16:50:23;12.40;67.50
61979;DHT22;47938;48.176;16.414;2023-02-23T16:52:51;12.40;67.80
61979;DHT22;47938;48.176;16.414;2023-02-23T16:55:19;12.30;68.10
61979;DHT22;47938;48.176;16.414;2023-02-23T16:57:47;12.20;68.60
61979;DHT22;47938;48.176;16.414;2023-02-23T17:00:17;12.20;68.60
61979;DHT22;47938;48.176;16.414;2023-02-23T17:02:44;12.20;67.90
61979;DHT22;47938;48.176;16.414;2023-02-23T17:05:15;12.20;67.50
61979;DHT22;47938;48.176;16.414;2023-02-23T17:07:41;12.20;67.70
61979;DHT22;47938;48.176;16.414;2023-02-23T17:10:09;12.20;67.00
61979;DHT22;47938;48.176;16.414;2023-02-23T17:12:35;12.10;66.60
61979;DHT22;47938;48.176;16.414;2023-02-23T17:15:02;12.10;67.20
61979;DHT22;47938;48.176;16.414;2023-02-23T17:17:28;12.10;67.30
61979;DHT22;47938;48.176;16.414;2023-02-23T17:19:54;12.00;69.30
61979;DHT22;47938;48.176;16.414;2023-02-23T17:22:19;12.00;68.30
61979;DHT22;47938;48.176;16.414;2023-02-23T17:24:45;12.00;68.00
61979;DHT22;47938;48.176;16.414;2023-02-23T17:27:11;11.90;68.40
61979;DHT22;47938;48.176;16.414;2023-02-23T17:29:37;12.00;67.70
61979;DHT22;47938;48.176;16.414;2023-02-23T17:32:03;12.00;68.50
61979;DHT22;47938;48.176;16.414;2023-02-23T17:34:29;11.90;67.70
61979;DHT22;47938;48.176;16.414;2023-02-23T17:36:55;11.90;67.90
61979;DHT22;47938;48.176;16.414;2023-02-23T17:39:22;11.80;68.50
61979;DHT22;47938;48.176;16.414;2023-02-23T17:41:48;11.80;68.80
61979;DHT22;47938;48.176;16.414;2023-02-23T17:44:13;11.70;69.30